createdAt,value
2023-03-26T00:00:54.059Z,58.41
2023-03-26T00:03:20.368Z,58.71
2023-03-26T00:05:46.747Z,58.58
2023-03-26T00:08:13.093Z,58.20
2023-03-26T00:10:39.420Z,57.72
2023-03-26T00:13:05.744Z,58.60
2023-03-26T00:15:32.056Z,58.26
2023-03-26T00:17:58.437Z,58.09
2023-03-26T00:20:24.778Z,57.94
2023-03-26T00:22:51.096Z,57.62
2023-03-26T00:25:17.432Z,57.66
2023-03-26T00:27:43.763Z,59.24
2023-03-26T00:30:10.072Z,58.96
2023-03-26T00:32:36.421Z,58.88
2023-03-26T00:35:02.790Z,58.81
2023-03-26T00:37:29.126Z,59.27
2023-03-26T00:39:55.455Z,58.86
2023-03-26T00:42:27.277Z,57.89
2023-03-26T00:44:53.594Z,57.55
2023-03-26T00:47:19.946Z,56.56
2023-03-26T00:49:46.256Z,57.36
2023-03-26T00:52:12.564Z,57.11
2023-03-26T00:54:38.884Z,56.48
2023-03-26T00:57:05.238Z,56.27
2023-03-26T00:59:31.564Z,56.89
2023-03-26T01:01:57.941Z,56.29
2023-03-26T01:04:24.527Z,56.69
2023-03-26T01:06:50.957Z,56.60
2023-03-26T01:09:17.324Z,56.71
2023-03-26T01:11:43.674Z,56.24
2023-03-26T01:14:09.979Z,56.42
2023-03-26T01:16:36.295Z,56.59
2023-03-26T01:19:02.630Z,56.44
2023-03-26T01:21:28.940Z,56.01
2023-03-26T01:23:55.246Z,56.36
2023-03-26T01:26:21.549Z,55.63
2023-03-26T01:28:47.903Z,55.65
2023-03-26T01:31:14.218Z,55.62
2023-03-26T01:33:40.590Z,55.73
2023-03-26T01:36:07.120Z,55.58
2023-03-26T01:38:33.467Z,56.85
2023-03-26T01:40:59.776Z,57.20
2023-03-26T01:43:26.108Z,57.26
2023-03-26T01:45:52.688Z,57.22
2023-03-26T01:48:19.177Z,57.15
2023-03-26T01:50:45.509Z,57.24
2023-03-26T01:53:11.827Z,56.76
2023-03-26T01:55:38.157Z,56.18
2023-03-26T01:58:04.458Z,56.65
2023-03-26T02:00:30.760Z,57.01
2023-03-26T02:02:57.191Z,56.19
2023-03-26T02:05:23.577Z,56.23
2023-03-26T02:07:49.877Z,56.65
2023-03-26T02:10:16.174Z,56.01
2023-03-26T02:12:42.494Z,55.63
2023-03-26T02:15:08.826Z,55.34
2023-03-26T02:17:35.201Z,56.20
2023-03-26T02:20:01.531Z,56.39
2023-03-26T02:22:27.829Z,56.38
2023-03-26T02:24:54.132Z,56.69
2023-03-26T02:27:20.497Z,56.52
2023-03-26T02:29:46.834Z,56.93
2023-03-26T02:32:13.145Z,56.84
2023-03-26T02:34:39.450Z,56.02
2023-03-26T02:37:05.771Z,55.25
2023-03-26T02:39:32.110Z,55.60
2023-03-26T02:41:58.423Z,55.60
2023-03-26T02:44:24.734Z,56.15
2023-03-26T02:46:51.060Z,56.34
2023-03-26T02:49:17.387Z,56.64
2023-03-26T02:51:43.709Z,56.19
2023-03-26T02:54:10.043Z,56.68
2023-03-26T02:56:36.363Z,56.79
2023-03-26T02:59:02.701Z,56.42
2023-03-26T03:01:29.083Z,56.56
2023-03-26T03:03:55.390Z,56.39
2023-03-26T03:06:21.698Z,56.83
2023-03-26T03:08:48.005Z,57.16
2023-03-26T03:11:14.788Z,56.67
2023-03-26T03:13:41.292Z,57.62
2023-03-26T03:16:07.610Z,58.17
2023-03-26T03:18:33.948Z,57.84
2023-03-26T03:21:00.293Z,58.16
2023-03-26T03:23:26.612Z,58.68
2023-03-26T03:25:53.132Z,58.78
2023-03-26T03:28:19.861Z,59.59
2023-03-26T03:30:46.222Z,59.73
2023-03-26T03:33:12.544Z,59.50
2023-03-26T03:35:38.895Z,59.86
2023-03-26T03:38:05.267Z,60.84
2023-03-26T03:40:31.594Z,60.25
2023-03-26T03:42:57.925Z,60.22
2023-03-26T03:45:24.257Z,60.61
2023-03-26T03:47:50.589Z,60.37
2023-03-26T03:50:16.972Z,59.57
2023-03-26T03:52:43.284Z,59.74
2023-03-26T03:55:09.589Z,60.51
2023-03-26T03:57:35.898Z,59.60
2023-03-26T04:00:03.134Z,59.61
2023-03-26T04:02:30.483Z,59.35
2023-03-26T04:04:56.909Z,59.19
2023-03-26T04:07:23.228Z,59.82
2023-03-26T04:09:49.533Z,59.94
2023-03-26T04:12:15.844Z,60.58
2023-03-26T04:14:42.181Z,60.25
2023-03-26T04:17:08.482Z,59.79
2023-03-26T04:19:34.788Z,59.29
2023-03-26T04:22:01.124Z,59.89
2023-03-26T04:24:27.430Z,59.72
2023-03-26T04:26:53.737Z,59.93
2023-03-26T04:29:20.141Z,60.27
2023-03-26T04:31:46.479Z,59.82
2023-03-26T04:34:12.888Z,59.55
2023-03-26T04:36:39.204Z,60.10
2023-03-26T04:39:05.541Z,60.33
2023-03-26T04:41:31.870Z,60.28
2023-03-26T04:43:58.195Z,60.49
2023-03-26T04:46:24.552Z,60.20
2023-03-26T04:48:50.908Z,60.28
2023-03-26T04:51:17.248Z,60.91
2023-03-26T04:53:43.546Z,60.23
2023-03-26T04:56:09.845Z,60.76
2023-03-26T04:58:36.152Z,60.44
2023-03-26T05:01:09.787Z,59.86
2023-03-26T05:03:36.911Z,59.76
2023-03-26T05:06:03.225Z,59.49
2023-03-26T05:08:29.706Z,60.54
2023-03-26T05:10:56.239Z,60.00
2023-03-26T05:13:22.728Z,60.36
2023-03-26T05:15:49.048Z,60.81
2023-03-26T05:18:15.348Z,61.15
2023-03-26T05:20:41.648Z,61.28
2023-03-26T05:23:07.990Z,61.22
2023-03-26T05:25:34.316Z,61.56
2023-03-26T05:28:00.618Z,61.09
2023-03-26T05:30:26.947Z,61.48
2023-03-26T05:32:53.324Z,62.29
2023-03-26T05:35:19.796Z,62.67
2023-03-26T05:37:46.154Z,62.27
2023-03-26T05:40:12.452Z,61.82
2023-03-26T05:42:38.777Z,62.10
2023-03-26T05:45:05.104Z,62.39
2023-03-26T05:47:31.511Z,61.74
2023-03-26T05:49:57.884Z,61.43
2023-03-26T05:52:24.216Z,62.09
2023-03-26T05:54:50.532Z,62.13
2023-03-26T05:57:16.897Z,62.95
2023-03-26T05:59:43.220Z,63.12
2023-03-26T06:02:09.546Z,63.88
2023-03-26T06:04:35.976Z,65.32
2023-03-26T06:07:02.399Z,66.64
2023-03-26T06:09:28.712Z,66.28
2023-03-26T06:11:55.013Z,66.44
2023-03-26T06:14:21.327Z,66.29
2023-03-26T06:16:47.653Z,66.86
2023-03-26T06:19:13.996Z,66.50
2023-03-26T06:21:40.340Z,65.71
2023-03-26T06:24:06.652Z,65.43
2023-03-26T06:26:32.983Z,65.13
2023-03-26T06:28:59.305Z,64.70
2023-03-26T06:31:25.712Z,64.77
2023-03-26T06:33:52.041Z,64.44
2023-03-26T06:36:18.388Z,65.00
2023-03-26T06:38:44.758Z,64.76
2023-03-26T06:41:11.076Z,64.19
2023-03-26T06:43:37.477Z,63.84
2023-03-26T06:46:03.965Z,63.83
2023-03-26T06:48:30.376Z,64.01
2023-03-26T06:50:56.712Z,63.23
2023-03-26T06:53:23.048Z,63.58
2023-03-26T06:55:49.376Z,63.63
2023-03-26T06:58:15.712Z,63.88
2023-03-26T07:00:42.034Z,64.16
2023-03-26T07:03:08.384Z,63.80
2023-03-26T07:05:34.708Z,63.56
2023-03-26T07:08:01.011Z,64.02
2023-03-26T07:10:27.329Z,64.04
2023-03-26T07:12:53.657Z,63.51
2023-03-26T07:15:19.965Z,63.43
2023-03-26T07:17:46.304Z,63.60
2023-03-26T07:20:12.623Z,63.93
2023-03-26T07:22:38.933Z,63.71
2023-03-26T07:25:05.230Z,63.89
2023-03-26T07:27:31.543Z,64.30
2023-03-26T07:29:57.860Z,63.39
2023-03-26T07:32:24.215Z,63.63
2023-03-26T07:34:50.556Z,63.47
2023-03-26T07:37:16.868Z,64.04
2023-03-26T07:39:43.187Z,63.86
2023-03-26T07:42:09.510Z,64.20
2023-03-26T07:44:36.024Z,64.03
2023-03-26T07:47:02.377Z,63.66
2023-03-26T07:49:28.692Z,64.52
2023-03-26T07:51:55.020Z,64.26
2023-03-26T07:54:21.327Z,64.59
2023-03-26T07:56:47.682Z,64.42
2023-03-26T07:59:14.017Z,64.00
2023-03-26T08:01:40.329Z,64.11
2023-03-26T08:04:23.772Z,63.66
2023-03-26T08:06:52.679Z,64.49
2023-03-26T08:09:19.011Z,64.99
2023-03-26T08:11:45.376Z,65.35
2023-03-26T08:14:11.713Z,65.04
2023-03-26T08:16:38.026Z,65.39
2023-03-26T08:19:04.325Z,65.87
2023-03-26T08:21:30.641Z,66.01
2023-03-26T08:23:56.991Z,65.80
2023-03-26T08:26:23.306Z,66.06
2023-03-26T08:28:49.626Z,66.00
2023-03-26T08:31:15.970Z,65.93
2023-03-26T08:33:42.341Z,65.78
2023-03-26T08:36:08.649Z,66.00
2023-03-26T08:38:34.971Z,65.80
2023-03-26T08:41:01.284Z,65.49
2023-03-26T08:43:27.586Z,65.62
2023-03-26T08:45:53.906Z,64.72
2023-03-26T08:48:20.232Z,64.30
2023-03-26T08:50:46.569Z,64.71
2023-03-26T08:53:12.889Z,64.26
2023-03-26T08:55:39.228Z,64.56
2023-03-26T08:58:05.548Z,63.61
2023-03-26T09:00:31.864Z,63.40
2023-03-26T09:02:58.237Z,63.25
2023-03-26T09:05:24.605Z,63.24
2023-03-26T09:07:50.930Z,63.61
2023-03-26T09:10:17.238Z,62.99
2023-03-26T09:12:43.570Z,63.21
2023-03-26T09:15:09.891Z,64.09
2023-03-26T09:17:36.223Z,63.72
2023-03-26T09:20:02.576Z,64.67
2023-03-26T09:22:28.923Z,64.31
2023-03-26T09:24:55.235Z,64.06
2023-03-26T09:27:21.573Z,63.90
2023-03-26T09:29:47.888Z,64.12
2023-03-26T09:32:14.198Z,63.29
2023-03-26T09:34:40.522Z,63.04
2023-03-26T09:37:06.854Z,62.93
2023-03-26T09:39:33.166Z,62.81
2023-03-26T09:41:59.479Z,62.78
2023-03-26T09:44:25.801Z,62.27
2023-03-26T09:46:52.133Z,61.86
2023-03-26T09:49:18.478Z,62.58
2023-03-26T09:51:44.793Z,63.43
2023-03-26T09:54:12.172Z,63.19
2023-03-26T09:56:39.615Z,63.45
2023-03-26T09:59:06.192Z,64.65
2023-03-26T10:01:32.519Z,63.59
2023-03-26T10:03:58.859Z,64.24
2023-03-26T10:06:25.195Z,63.03
2023-03-26T10:08:51.512Z,62.97
2023-03-26T10:11:17.855Z,64.30
2023-03-26T10:13:44.158Z,63.58
2023-03-26T10:16:10.599Z,62.57
2023-03-26T10:18:36.972Z,62.83
2023-03-26T10:21:03.315Z,62.71
2023-03-26T10:23:29.618Z,61.90
2023-03-26T10:25:55.924Z,61.13
2023-03-26T10:28:22.249Z,61.38
2023-03-26T10:30:48.602Z,61.54
2023-03-26T10:33:14.934Z,60.87
2023-03-26T10:35:41.264Z,60.74
2023-03-26T10:38:07.621Z,61.42
2023-03-26T10:40:33.930Z,62.36
2023-03-26T10:43:00.241Z,64.30
2023-03-26T10:45:26.555Z,64.50
2023-03-26T10:47:52.908Z,64.15
2023-03-26T10:50:23.666Z,64.65
2023-03-26T10:52:50.201Z,64.00
2023-03-26T10:55:16.515Z,64.11
2023-03-26T10:57:42.819Z,63.82
2023-03-26T11:00:09.128Z,63.23
2023-03-26T11:02:35.451Z,63.80
2023-03-26T11:05:01.753Z,62.51
2023-03-26T11:07:28.077Z,63.01
2023-03-26T11:09:54.398Z,62.72
2023-03-26T11:12:26.584Z,63.03
2023-03-26T11:14:54.569Z,63.10
2023-03-26T11:17:40.663Z,64.10
2023-03-26T11:20:07.160Z,63.51
2023-03-26T11:22:33.487Z,64.45
2023-03-26T11:24:59.818Z,64.24
2023-03-26T11:27:26.536Z,64.54
2023-03-26T11:29:52.948Z,65.55
2023-03-26T11:32:19.313Z,65.05
2023-03-26T11:34:45.971Z,65.28
2023-03-26T11:37:12.277Z,63.34
2023-03-26T11:39:38.600Z,63.09
2023-03-26T11:42:04.929Z,63.56
2023-03-26T11:44:31.250Z,62.78
2023-03-26T11:46:57.578Z,62.03
2023-03-26T11:49:23.946Z,61.96
2023-03-26T11:51:50.288Z,60.70
2023-03-26T11:54:16.608Z,60.71
2023-03-26T11:57:05.755Z,59.83
2023-03-26T11:59:29.217Z,58.64
2023-03-26T12:01:55.571Z,57.30
2023-03-26T12:04:21.891Z,58.75
2023-03-26T12:06:48.238Z,59.48
2023-03-26T12:09:14.534Z,58.55
2023-03-26T12:11:40.852Z,58.54
2023-03-26T12:14:07.156Z,57.46
2023-03-26T12:16:33.507Z,58.08
2023-03-26T12:18:59.866Z,58.56
2023-03-26T12:21:26.181Z,59.13
2023-03-26T12:23:52.547Z,58.47
2023-03-26T12:26:18.854Z,58.44
2023-03-26T12:28:45.168Z,59.00
2023-03-26T12:31:11.551Z,59.66
2023-03-26T12:33:37.922Z,60.84
2023-03-26T12:36:04.283Z,60.31
2023-03-26T12:38:30.622Z,61.03
2023-03-26T12:40:56.919Z,61.96
2023-03-26T12:44:49.665Z,61.01
2023-03-26T12:47:56.097Z,61.55
2023-03-26T12:48:55.901Z,61.86
2023-03-26T12:51:22.312Z,62.63
2023-03-26T12:53:48.640Z,62.64
2023-03-26T12:56:14.950Z,62.74
2023-03-26T12:58:41.283Z,62.32
2023-03-26T13:01:07.619Z,62.17
2023-03-26T13:03:33.971Z,61.37
2023-03-26T13:06:00.356Z,62.75
2023-03-26T13:08:26.701Z,61.50
2023-03-26T13:10:53.167Z,60.99
2023-03-26T13:13:19.533Z,60.60
2023-03-26T13:15:45.828Z,60.77
2023-03-26T13:18:12.135Z,61.21
2023-03-26T13:20:38.461Z,60.95
2023-03-26T13:23:04.782Z,61.03
2023-03-26T13:25:31.081Z,59.80
2023-03-26T13:27:57.399Z,58.75
2023-03-26T13:30:23.702Z,58.31
2023-03-26T13:32:50.036Z,59.07
2023-03-26T13:35:16.430Z,51.77
2023-03-26T13:37:42.768Z,56.54
2023-03-26T13:40:09.092Z,57.85
2023-03-26T13:42:35.432Z,57.39
2023-03-26T13:45:04.626Z,57.05
2023-03-26T13:47:32.283Z,56.75
2023-03-26T13:49:58.682Z,56.02
2023-03-26T13:52:25.022Z,56.51
2023-03-26T13:54:51.393Z,54.40
2023-03-26T13:57:17.736Z,54.99
2023-03-26T13:59:44.136Z,55.50
2023-03-26T14:02:10.441Z,56.48
2023-03-26T14:04:36.744Z,56.56
2023-03-26T14:07:03.054Z,57.56
2023-03-26T14:09:29.347Z,56.93
2023-03-26T14:11:55.647Z,56.74
2023-03-26T14:14:21.945Z,57.74
2023-03-26T14:16:48.252Z,58.03
2023-03-26T14:19:14.576Z,58.13
2023-03-26T14:21:40.888Z,57.81
2023-03-26T14:24:07.195Z,58.91
2023-03-26T14:26:33.489Z,58.80
2023-03-26T14:28:59.804Z,57.98
2023-03-26T14:31:26.153Z,58.14
2023-03-26T14:33:52.493Z,57.57
2023-03-26T14:36:18.848Z,57.56
2023-03-26T14:38:45.160Z,58.38
2023-03-26T14:43:46.787Z,57.95
2023-03-26T14:46:13.167Z,57.67
2023-03-26T14:48:39.589Z,57.34
2023-03-26T14:51:05.949Z,55.98
2023-03-26T14:53:32.282Z,55.09
2023-03-26T14:55:58.604Z,56.49
2023-03-26T14:58:24.909Z,55.92
2023-03-26T15:00:51.257Z,55.57
2023-03-26T15:03:17.660Z,56.13
2023-03-26T15:05:44.021Z,56.17
2023-03-26T15:08:10.346Z,56.07
2023-03-26T15:10:36.680Z,55.85
2023-03-26T15:13:02.996Z,56.72
2023-03-26T15:15:29.316Z,56.29
2023-03-26T15:17:55.704Z,55.76
2023-03-26T15:20:22.043Z,53.55
2023-03-26T15:22:48.374Z,52.31
2023-03-26T15:25:14.825Z,52.35
2023-03-26T15:27:41.263Z,52.31
2023-03-26T15:30:07.571Z,51.51
2023-03-26T15:32:33.944Z,52.17
2023-03-26T15:35:00.294Z,52.15
2023-03-26T15:37:26.618Z,51.40
2023-03-26T15:39:59.177Z,51.53
2023-03-26T15:42:26.677Z,50.91
2023-03-26T15:44:54.091Z,51.84
2023-03-26T15:47:20.807Z,51.36
2023-03-26T15:49:47.126Z,51.26
2023-03-26T15:52:13.449Z,51.22
2023-03-26T15:54:39.752Z,51.44
2023-03-26T15:57:06.129Z,51.14
2023-03-26T15:59:32.457Z,52.41
2023-03-26T16:01:58.788Z,51.30
2023-03-26T16:04:25.099Z,50.90
2023-03-26T16:06:51.445Z,50.87
2023-03-26T16:09:17.757Z,50.56
2023-03-26T16:11:44.062Z,51.79
2023-03-26T16:14:10.394Z,52.94
2023-03-26T16:16:36.696Z,53.44
2023-03-26T16:19:03.012Z,54.18
2023-03-26T16:21:31.410Z,53.50
2023-03-26T16:23:58.885Z,53.55
2023-03-26T16:26:25.201Z,54.06
2023-03-26T16:28:51.530Z,54.03
2023-03-26T16:31:36.820Z,52.96
2023-03-26T16:34:04.129Z,53.33
2023-03-26T16:36:30.432Z,53.30
2023-03-26T16:38:56.763Z,54.42
2023-03-26T16:41:23.062Z,52.10
2023-03-26T16:43:49.404Z,51.36
2023-03-26T16:46:15.752Z,52.31
2023-03-26T16:48:42.055Z,51.91
2023-03-26T16:51:08.394Z,51.80
2023-03-26T16:53:34.715Z,52.04
2023-03-26T16:56:01.058Z,52.77
2023-03-26T16:58:27.396Z,53.07
2023-03-26T17:00:53.964Z,53.41
2023-03-26T17:03:20.573Z,53.61
2023-03-26T17:05:47.021Z,54.42
2023-03-26T17:08:13.410Z,53.77
2023-03-26T17:10:39.749Z,54.66
2023-03-26T17:13:06.088Z,54.32
2023-03-26T17:15:32.412Z,53.03
2023-03-26T17:17:58.823Z,53.21
2023-03-26T17:20:25.196Z,53.57
2023-03-26T17:22:51.519Z,54.16
2023-03-26T17:25:17.831Z,53.67
2023-03-26T17:27:44.152Z,54.29
2023-03-26T17:30:10.781Z,53.64
2023-03-26T17:32:37.298Z,53.85
2023-03-26T17:35:07.995Z,54.41
2023-03-26T17:37:34.346Z,54.01
2023-03-26T17:40:00.670Z,53.78
2023-03-26T17:42:26.984Z,54.21
2023-03-26T17:44:53.322Z,54.10
2023-03-26T17:47:19.654Z,53.94
2023-03-26T17:49:45.988Z,53.76
2023-03-26T17:52:12.340Z,53.70
2023-03-26T17:54:38.654Z,53.74
2023-03-26T17:57:04.967Z,53.51
2023-03-26T17:59:31.320Z,53.82
2023-03-26T18:01:57.651Z,53.87
2023-03-26T18:04:24.007Z,53.52
2023-03-26T18:06:50.333Z,53.92
2023-03-26T18:09:16.633Z,53.59
2023-03-26T18:11:42.946Z,54.18
2023-03-26T18:14:09.262Z,54.18
2023-03-26T18:16:35.623Z,54.17
2023-03-26T18:19:01.935Z,54.72
2023-03-26T18:21:28.266Z,54.60
2023-03-26T18:23:54.590Z,54.53
2023-03-26T18:26:26.368Z,53.90
2023-03-26T18:28:52.692Z,54.07
2023-03-26T18:31:19.055Z,54.17
2023-03-26T18:33:45.507Z,53.31
2023-03-26T18:36:11.949Z,53.56
2023-03-26T18:38:40.018Z,54.20
2023-03-26T18:41:07.517Z,54.44
2023-03-26T18:43:35.223Z,55.64
2023-03-26T18:46:02.109Z,57.42
2023-03-26T18:48:28.457Z,59.16
2023-03-26T18:50:55.117Z,62.74
2023-03-26T18:53:21.676Z,62.77
2023-03-26T18:55:48.006Z,63.91
2023-03-26T18:58:14.321Z,63.03
2023-03-26T19:00:40.622Z,63.06
2023-03-26T19:03:07.028Z,62.78
2023-03-26T19:05:33.418Z,63.31
2023-03-26T19:07:59.730Z,62.43
2023-03-26T19:10:26.033Z,61.92
2023-03-26T19:12:52.347Z,61.55
2023-03-26T19:15:18.682Z,61.60
2023-03-26T19:17:45.056Z,61.83
2023-03-26T19:20:11.420Z,62.21
2023-03-26T19:22:37.729Z,62.38
2023-03-26T19:25:04.043Z,62.39
2023-03-26T19:27:30.368Z,62.00
2023-03-26T19:29:56.674Z,61.57
2023-03-26T19:32:23.023Z,61.24
2023-03-26T19:34:49.351Z,61.56
2023-03-26T19:37:15.679Z,60.76
2023-03-26T19:39:42.035Z,60.21
2023-03-26T19:42:08.349Z,61.45
2023-03-26T19:44:34.680Z,62.11
2023-03-26T19:47:01.027Z,62.27
2023-03-26T19:49:28.511Z,62.18
2023-03-26T19:51:54.997Z,62.33
2023-03-26T19:54:21.312Z,62.23
2023-03-26T19:56:47.695Z,62.79
2023-03-26T19:59:14.035Z,63.11
2023-03-26T20:01:40.378Z,62.51
2023-03-26T20:04:06.781Z,62.94
2023-03-26T20:06:43.056Z,62.43
2023-03-26T20:09:10.325Z,61.81
2023-03-26T20:11:36.687Z,63.07
2023-03-26T20:14:03.013Z,63.39
2023-03-26T20:16:29.415Z,64.00
2023-03-26T20:18:55.784Z,63.77
2023-03-26T20:21:22.118Z,63.65
2023-03-26T20:23:48.426Z,63.64
2023-03-26T20:26:14.734Z,64.16
2023-03-26T20:28:47.793Z,63.97
2023-03-26T20:31:15.079Z,63.78
2023-03-26T20:33:41.445Z,63.33
2023-03-26T20:36:07.787Z,63.27
2023-03-26T20:38:39.386Z,63.42
2023-03-26T20:41:06.393Z,63.68
2023-03-26T20:43:32.712Z,63.50
2023-03-26T20:45:59.007Z,64.18
2023-03-26T20:48:25.374Z,64.25
2023-03-26T20:50:51.700Z,63.94
2023-03-26T20:53:18.010Z,64.53
2023-03-26T20:55:44.310Z,64.18
2023-03-26T20:58:10.656Z,64.75
2023-03-26T21:00:36.987Z,64.68
2023-03-26T21:03:03.336Z,64.45
2023-03-26T21:05:29.674Z,65.08
2023-03-26T21:07:56.003Z,64.97
2023-03-26T21:10:22.295Z,65.08
2023-03-26T21:12:48.634Z,64.27
2023-03-26T21:15:23.074Z,64.12
2023-03-26T21:17:50.181Z,64.79
2023-03-26T21:20:16.546Z,64.40
2023-03-26T21:22:42.869Z,65.38
2023-03-26T21:25:09.242Z,65.56
2023-03-26T21:27:35.555Z,65.61
2023-03-26T21:30:01.859Z,64.07
2023-03-26T21:32:28.194Z,64.30
2023-03-26T21:37:23.757Z,64.83
2023-03-26T21:39:50.086Z,65.12
2023-03-26T21:42:16.428Z,65.28
2023-03-26T21:44:42.725Z,65.10
2023-03-26T21:47:09.903Z,64.83
2023-03-26T21:49:36.333Z,64.78
2023-03-26T21:52:02.653Z,64.77
2023-03-26T21:54:28.959Z,62.71
2023-03-26T21:56:55.330Z,63.59
2023-03-26T21:59:21.663Z,63.39
2023-03-26T22:01:48.025Z,63.68
2023-03-26T22:04:14.340Z,64.81
2023-03-26T22:06:40.661Z,65.56
2023-03-26T22:09:06.986Z,64.98
2023-03-26T22:11:33.297Z,65.63
2023-03-26T22:13:59.630Z,63.89
2023-03-26T22:16:25.985Z,64.35
2023-03-26T22:18:52.334Z,64.16
2023-03-26T22:21:18.650Z,64.01
2023-03-26T22:23:44.950Z,64.11
2023-03-26T22:26:11.262Z,63.09
2023-03-26T22:28:37.609Z,62.99
2023-03-26T22:31:03.952Z,61.83
2023-03-26T22:33:30.312Z,60.02
2023-03-26T22:35:56.656Z,59.42
2023-03-26T22:38:22.998Z,59.39
2023-03-26T22:40:49.347Z,58.35
2023-03-26T22:43:15.670Z,59.11
2023-03-26T22:45:41.991Z,58.92
2023-03-26T22:48:08.423Z,58.37
2023-03-26T22:50:34.761Z,58.39
2023-03-26T22:53:01.091Z,57.52
2023-03-26T22:55:28.956Z,57.86
2023-03-26T22:57:56.128Z,58.64
2023-03-26T23:00:22.436Z,58.52
2023-03-26T23:02:48.893Z,59.17
2023-03-26T23:05:15.296Z,59.48
2023-03-26T23:07:41.611Z,59.67
2023-03-26T23:10:07.932Z,59.31
2023-03-26T23:12:34.269Z,60.28
2023-03-26T23:15:00.569Z,60.55
2023-03-26T23:17:26.968Z,61.00
2023-03-26T23:19:53.298Z,59.83
2023-03-26T23:22:19.618Z,60.28
2023-03-26T23:24:45.940Z,60.75
2023-03-26T23:27:12.254Z,61.08
2023-03-26T23:29:38.551Z,61.33
2023-03-26T23:32:24.484Z,61.71
2023-03-26T23:34:51.942Z,62.49
2023-03-26T23:37:18.866Z,62.33
2023-03-26T23:39:45.161Z,62.30
2023-03-26T23:42:11.483Z,63.31
2023-03-26T23:44:37.790Z,62.93
2023-03-26T23:47:04.090Z,62.81
2023-03-26T23:49:30.404Z,62.31
2023-03-26T23:51:56.757Z,62.10
2023-03-26T23:54:23.085Z,62.27
2023-03-26T23:56:49.459Z,62.96
2023-03-26T23:59:15.814Z,63.00
